sensor_id;sensor_type;location;lat;lon;timestamp;pressure;altitude;pressure_sealevel;temperature;humidity
41688;BME280;27371;42.686;23.362;2022-12-08T00:01:44;163192.25;;;3.82;93.07
41688;BME280;27371;42.686;23.362;2022-12-08T00:04:10;163196.22;;;3.83;93.07
41688;BME280;27371;42.686;23.362;2022-12-08T00:06:41;163180.25;;;3.77;93.31
41688;BME280;27371;42.686;23.362;2022-12-08T00:09:32;163189.59;;;3.81;93.93
41688;BME280;27371;42.686;23.362;2022-12-08T00:12:03;163204.25;;;3.86;94.24
41688;BME280;27371;42.686;23.362;2022-12-08T00:14:32;163221.53;;;3.93;94.28
41688;BME280;27371;42.686;23.362;2022-12-08T00:16:58;163237.47;;;3.99;94.34
41688;BME280;27371;42.686;23.362;2022-12-08T00:19:25;163237.47;;;3.99;94.05
41688;BME280;27371;42.686;23.362;2022-12-08T00:21:51;163246.81;;;4.03;94.07
41688;BME280;27371;42.686;23.362;2022-12-08T00:24:18;163260.09;;;4.08;94.00
41688;BME280;27371;42.686;23.362;2022-12-08T00:26:43;163270.75;;;4.12;93.88
41688;BME280;27371;42.686;23.362;2022-12-08T00:29:10;163269.44;;;4.11;94.04
41688;BME280;27371;42.686;23.362;2022-12-08T00:31:35;163278.75;;;4.15;93.88
41688;BME280;27371;42.686;23.362;2022-12-08T00:34:01;163286.72;;;4.18;93.80
41688;BME280;27371;42.686;23.362;2022-12-08T00:36:27;163278.75;;;4.15;93.66
41688;BME280;27371;42.686;23.362;2022-12-08T00:38:53;163266.75;;;4.10;93.70
41688;BME280;27371;42.686;23.362;2022-12-08T00:41:21;163258.78;;;4.07;92.84
41688;BME280;27371;42.686;23.362;2022-12-08T00:44:07;163204.25;;;3.86;91.58
41688;BME280;27371;42.686;23.362;2022-12-08T00:46:32;163173.59;;;3.74;91.77
41688;BME280;27371;42.686;23.362;2022-12-08T00:48:58;163170.97;;;3.73;91.95
41688;BME280;27371;42.686;23.362;2022-12-08T00:51:23;163174.97;;;3.75;92.24
41688;BME280;27371;42.686;23.362;2022-12-08T00:53:49;163169.63;;;3.73;92.84
41688;BME280;27371;42.686;23.362;2022-12-08T00:56:14;163152.31;;;3.66;92.97
41688;BME280;27371;42.686;23.362;2022-12-08T00:58:40;163143.00;;;3.63;93.47
41688;BME280;27371;42.686;23.362;2022-12-08T01:03:41;163174.97;;;3.75;94.49
41688;BME280;27371;42.686;23.362;2022-12-08T01:06:07;163182.94;;;3.78;94.79
41688;BME280;27371;42.686;23.362;2022-12-08T01:08:35;163192.25;;;3.82;94.94
41688;BME280;27371;42.686;23.362;2022-12-08T01:11:06;163221.53;;;3.93;94.84
41688;BME280;27371;42.686;23.362;2022-12-08T01:13:32;163221.53;;;3.93;94.90
41688;BME280;27371;42.686;23.362;2022-12-08T01:15:58;163217.50;;;3.91;94.57
41688;BME280;27371;42.686;23.362;2022-12-08T01:18:24;163222.84;;;3.93;94.78
41688;BME280;27371;42.686;23.362;2022-12-08T01:20:50;163236.16;;;3.98;94.94
41688;BME280;27371;42.686;23.362;2022-12-08T01:23:16;163226.84;;;3.95;94.60
41688;BME280;27371;42.686;23.362;2022-12-08T01:25:41;163241.50;;;4.00;94.55
41688;BME280;27371;42.686;23.362;2022-12-08T01:28:07;163222.84;;;3.93;94.30
41688;BME280;27371;42.686;23.362;2022-12-08T01:30:32;163224.16;;;3.94;94.22
41688;BME280;27371;42.686;23.362;2022-12-08T01:32:58;163197.59;;;3.84;94.21
41688;BME280;27371;42.686;23.362;2022-12-08T01:35:23;163201.53;;;3.85;93.21
41688;BME280;27371;42.686;23.362;2022-12-08T01:37:49;163149.66;;;3.65;92.10
41688;BME280;27371;42.686;23.362;2022-12-08T01:40:16;163137.69;;;3.61;92.51
41688;BME280;27371;42.686;23.362;2022-12-08T01:42:41;163109.72;;;3.50;93.12
41688;BME280;27371;42.686;23.362;2022-12-08T01:45:28;163136.34;;;3.60;93.56
41688;BME280;27371;42.686;23.362;2022-12-08T01:48:02;163129.69;;;3.57;93.94
41688;BME280;27371;42.686;23.362;2022-12-08T01:50:30;163127.06;;;3.56;94.18
41688;BME280;27371;42.686;23.362;2022-12-08T01:53:08;163144.34;;;3.63;94.04
41688;BME280;27371;42.686;23.362;2022-12-08T01:55:41;163121.72;;;3.54;93.53
41688;BME280;27371;42.686;23.362;2022-12-08T01:58:30;163108.41;;;3.49;93.38
41688;BME280;27371;42.686;23.362;2022-12-08T02:00:56;163112.44;;;3.51;93.81
41688;BME280;27371;42.686;23.362;2022-12-08T02:03:40;163105.78;;;3.48;94.25
41688;BME280;27371;42.686;23.362;2022-12-08T02:06:07;163113.75;;;3.51;94.83
41688;BME280;27371;42.686;23.362;2022-12-08T02:08:35;163129.69;;;3.57;94.96
41688;BME280;27371;42.686;23.362;2022-12-08T02:11:05;163128.38;;;3.57;94.80
41688;BME280;27371;42.686;23.362;2022-12-08T02:13:33;163148.34;;;3.65;94.92
41688;BME280;27371;42.686;23.362;2022-12-08T02:24:45;163180.25;;;3.77;94.31
41688;BME280;27371;42.686;23.362;2022-12-08T02:30:15;163202.88;;;3.86;93.51
41688;BME280;27371;42.686;23.362;2022-12-08T02:35:43;163161.66;;;3.70;92.66
41688;BME280;27371;42.686;23.362;2022-12-08T02:40:47;163113.75;;;3.51;92.62
41688;BME280;27371;42.686;23.362;2022-12-08T02:43:31;163112.44;;;3.51;93.09
41688;BME280;27371;42.686;23.362;2022-12-08T02:46:04;163095.09;;;3.44;93.13
41688;BME280;27371;42.686;23.362;2022-12-08T02:48:33;163061.88;;;3.31;93.25
41688;BME280;27371;42.686;23.362;2022-12-08T02:50:58;163060.56;;;3.31;93.67
41688;BME280;27371;42.686;23.362;2022-12-08T02:53:27;163051.22;;;3.27;93.99
41688;BME280;27371;42.686;23.362;2022-12-08T03:02:12;163105.78;;;3.48;96.02
41688;BME280;27371;42.686;23.362;2022-12-08T03:10:19;163158.97;;;3.69;95.83
41688;BME280;27371;42.686;23.362;2022-12-08T03:12:49;163172.28;;;3.74;95.34
41688;BME280;27371;42.686;23.362;2022-12-08T03:15:18;163186.91;;;3.79;95.12
41688;BME280;27371;42.686;23.362;2022-12-08T03:17:50;163153.69;;;3.67;94.73
41688;BME280;27371;42.686;23.362;2022-12-08T03:20:27;163164.31;;;3.71;94.72
41688;BME280;27371;42.686;23.362;2022-12-08T03:22:56;163153.69;;;3.67;94.46
41688;BME280;27371;42.686;23.362;2022-12-08T03:25:24;163157.66;;;3.68;94.36
41688;BME280;27371;42.686;23.362;2022-12-08T03:27:50;163155.00;;;3.67;93.09
41688;BME280;27371;42.686;23.362;2022-12-08T03:30:17;163089.81;;;3.42;90.97
41688;BME280;27371;42.686;23.362;2022-12-08T03:32:52;163023.28;;;3.17;90.90
41688;BME280;27371;42.686;23.362;2022-12-08T03:35:25;162994.03;;;3.05;91.72
41688;BME280;27371;42.686;23.362;2022-12-08T03:38:02;162988.75;;;3.03;92.66
41688;BME280;27371;42.686;23.362;2022-12-08T03:40:28;163008.66;;;3.11;93.25
41688;BME280;27371;42.686;23.362;2022-12-08T03:42:53;162983.41;;;3.01;93.71
41688;BME280;27371;42.686;23.362;2022-12-08T03:45:18;163024.66;;;3.17;93.76
41688;BME280;27371;42.686;23.362;2022-12-08T03:47:44;163007.34;;;3.10;94.13
41688;BME280;27371;42.686;23.362;2022-12-08T03:50:10;163018.00;;;3.15;94.77
41688;BME280;27371;42.686;23.362;2022-12-08T03:52:36;163023.28;;;3.17;94.89
41688;BME280;27371;42.686;23.362;2022-12-08T03:55:01;163043.25;;;3.24;94.83
41688;BME280;27371;42.686;23.362;2022-12-08T03:57:27;163057.88;;;3.30;94.85
41688;BME280;27371;42.686;23.362;2022-12-08T03:59:52;163073.81;;;3.36;94.81
41688;BME280;27371;42.686;23.362;2022-12-08T04:02:18;163069.84;;;3.34;94.67
41688;BME280;27371;42.686;23.362;2022-12-08T04:04:43;163075.19;;;3.37;94.56
41688;BME280;27371;42.686;23.362;2022-12-08T04:07:09;163095.09;;;3.44;94.61
41688;BME280;27371;42.686;23.362;2022-12-08T04:09:34;163119.09;;;3.53;94.41
41688;BME280;27371;42.686;23.362;2022-12-08T04:12:00;163140.38;;;3.62;94.30
41688;BME280;27371;42.686;23.362;2022-12-08T04:14:25;163141.69;;;3.62;94.00
41688;BME280;27371;42.686;23.362;2022-12-08T04:16:51;163155.00;;;3.67;93.73
41688;BME280;27371;42.686;23.362;2022-12-08T04:19:16;163165.63;;;3.71;93.62
41688;BME280;27371;42.686;23.362;2022-12-08T04:21:41;163143.00;;;3.63;92.13
41688;BME280;27371;42.686;23.362;2022-12-08T04:24:07;163036.59;;;3.22;90.08
41688;BME280;27371;42.686;23.362;2022-12-08T04:26:33;162975.44;;;2.98;90.39
41688;BME280;27371;42.686;23.362;2022-12-08T04:28:58;162987.38;;;3.03;91.57
41688;BME280;27371;42.686;23.362;2022-12-08T04:31:24;163009.97;;;3.11;92.19
41688;BME280;27371;42.686;23.362;2022-12-08T04:33:50;163020.63;;;3.16;92.98
41688;BME280;27371;42.686;23.362;2022-12-08T04:36:15;163021.97;;;3.16;93.21
41688;BME280;27371;42.686;23.362;2022-12-08T04:38:41;163025.97;;;3.18;93.20
41688;BME280;27371;42.686;23.362;2022-12-08T04:41:06;163003.38;;;3.09;93.19
41688;BME280;27371;42.686;23.362;2022-12-08T04:43:32;163014.00;;;3.13;93.47
41688;BME280;27371;42.686;23.362;2022-12-08T04:45:58;163011.34;;;3.12;94.01
41688;BME280;27371;42.686;23.362;2022-12-08T04:48:23;163031.25;;;3.20;94.58
41688;BME280;27371;42.686;23.362;2022-12-08T04:50:49;163039.28;;;3.23;94.57
41688;BME280;27371;42.686;23.362;2022-12-08T04:53:14;163021.97;;;3.16;94.21
41688;BME280;27371;42.686;23.362;2022-12-08T04:55:44;163033.94;;;3.21;94.55
41688;BME280;27371;42.686;23.362;2022-12-08T04:58:13;163063.19;;;3.32;94.47
41688;BME280;27371;42.686;23.362;2022-12-08T05:00:39;163084.50;;;3.40;94.40
41688;BME280;27371;42.686;23.362;2022-12-08T05:03:05;163091.13;;;3.43;94.19
41688;BME280;27371;42.686;23.362;2022-12-08T05:05:30;163105.78;;;3.48;93.72
41688;BME280;27371;42.686;23.362;2022-12-08T05:07:56;163124.38;;;3.55;93.72
41688;BME280;27371;42.686;23.362;2022-12-08T05:10:21;163155.00;;;3.67;93.86
41688;BME280;27371;42.686;23.362;2022-12-08T05:12:47;163156.31;;;3.68;92.61
41688;BME280;27371;42.686;23.362;2022-12-08T05:15:12;163045.94;;;3.25;89.79
41688;BME280;27371;42.686;23.362;2022-12-08T05:17:38;162955.47;;;2.90;89.06
41688;BME280;27371;42.686;23.362;2022-12-08T05:20:04;162898.31;;;2.68;89.47
41688;BME280;27371;42.686;23.362;2022-12-08T05:22:30;162904.94;;;2.71;91.20
41688;BME280;27371;42.686;23.362;2022-12-08T05:24:55;162927.56;;;2.80;92.11
41688;BME280;27371;42.686;23.362;2022-12-08T05:27:21;162915.56;;;2.75;91.18
41688;BME280;27371;42.686;23.362;2022-12-08T05:29:46;162855.75;;;2.52;90.14
41688;BME280;27371;42.686;23.362;2022-12-08T05:32:12;162811.91;;;2.35;90.75
41688;BME280;27371;42.686;23.362;2022-12-08T05:34:38;162805.25;;;2.33;92.20
41688;BME280;27371;42.686;23.362;2022-12-08T05:37:03;162815.84;;;2.37;93.30
41688;BME280;27371;42.686;23.362;2022-12-08T05:39:29;162819.88;;;2.38;93.76
41688;BME280;27371;42.686;23.362;2022-12-08T05:41:55;162834.47;;;2.44;94.60
41688;BME280;27371;42.686;23.362;2022-12-08T05:44:20;162847.78;;;2.49;94.92
41688;BME280;27371;42.686;23.362;2022-12-08T05:46:46;162870.38;;;2.58;95.14
41688;BME280;27371;42.686;23.362;2022-12-08T05:49:11;162883.69;;;2.63;95.19
41688;BME280;27371;42.686;23.362;2022-12-08T05:51:37;162881.03;;;2.62;95.03
41688;BME280;27371;42.686;23.362;2022-12-08T05:54:02;162891.66;;;2.66;95.50
41688;BME280;27371;42.686;23.362;2022-12-08T05:56:29;162911.59;;;2.74;95.84
41688;BME280;27371;42.686;23.362;2022-12-08T05:58:54;162923.53;;;2.78;95.79
41688;BME280;27371;42.686;23.362;2022-12-08T06:03:47;162951.47;;;2.89;95.82
41688;BME280;27371;42.686;23.362;2022-12-08T06:06:12;162936.84;;;2.83;95.71
41688;BME280;27371;42.686;23.362;2022-12-08T06:08:38;162966.09;;;2.95;95.62
41688;BME280;27371;42.686;23.362;2022-12-08T06:11:03;163008.66;;;3.11;95.37
41688;BME280;27371;42.686;23.362;2022-12-08T06:13:29;163021.97;;;3.16;94.98
41688;BME280;27371;42.686;23.362;2022-12-08T06:15:54;163024.66;;;3.17;94.73
41688;BME280;27371;42.686;23.362;2022-12-08T06:18:20;163020.63;;;3.16;94.55
41688;BME280;27371;42.686;23.362;2022-12-08T06:20:45;163055.22;;;3.29;94.16
41688;BME280;27371;42.686;23.362;2022-12-08T06:23:12;163055.22;;;3.29;93.70
41688;BME280;27371;42.686;23.362;2022-12-08T06:25:37;163019.31;;;3.15;92.29
41688;BME280;27371;42.686;23.362;2022-12-08T06:28:04;162976.75;;;2.99;91.32
41688;BME280;27371;42.686;23.362;2022-12-08T06:30:30;162967.47;;;2.95;91.88
41688;BME280;27371;42.686;23.362;2022-12-08T06:32:55;162966.09;;;2.95;92.29
41688;BME280;27371;42.686;23.362;2022-12-08T06:35:21;162983.41;;;3.01;93.28
41688;BME280;27371;42.686;23.362;2022-12-08T06:37:46;162994.03;;;3.05;93.54
41688;BME280;27371;42.686;23.362;2022-12-08T06:40:12;163021.97;;;3.16;93.94
41688;BME280;27371;42.686;23.362;2022-12-08T06:42:38;163055.22;;;3.29;94.15
41688;BME280;27371;42.686;23.362;2022-12-08T06:45:15;163089.81;;;3.42;94.22
41688;BME280;27371;42.686;23.362;2022-12-08T06:47:42;163104.44;;;3.48;94.15
41688;BME280;27371;42.686;23.362;2022-12-08T06:50:09;163133.72;;;3.59;94.82
41688;BME280;27371;42.686;23.362;2022-12-08T06:52:35;163181.56;;;3.77;94.89
41688;BME280;27371;42.686;23.362;2022-12-08T06:55:01;163222.84;;;3.93;94.68
41688;BME280;27371;42.686;23.362;2022-12-08T06:57:26;163221.53;;;3.93;93.13
41688;BME280;27371;42.686;23.362;2022-12-08T06:59:52;163181.56;;;3.77;91.67
41688;BME280;27371;42.686;23.362;2022-12-08T07:02:17;163169.63;;;3.73;91.91
41688;BME280;27371;42.686;23.362;2022-12-08T07:04:43;163230.81;;;3.96;92.68
41688;BME280;27371;42.686;23.362;2022-12-08T07:07:09;163289.38;;;4.19;93.25
41688;BME280;27371;42.686;23.362;2022-12-08T07:09:34;163349.28;;;4.42;93.42
41688;BME280;27371;42.686;23.362;2022-12-08T07:12:02;163399.88;;;4.61;92.63
41688;BME280;27371;42.686;23.362;2022-12-08T07:14:27;163413.19;;;4.66;91.66
41688;BME280;27371;42.686;23.362;2022-12-08T07:16:53;163443.81;;;4.78;91.12
41688;BME280;27371;42.686;23.362;2022-12-08T07:19:18;163462.47;;;4.85;90.49
41688;BME280;27371;42.686;23.362;2022-12-08T07:21:44;163489.06;;;4.96;90.47
41688;BME280;27371;42.686;23.362;2022-12-08T07:24:09;163455.81;;;4.83;87.98
41688;BME280;27371;42.686;23.362;2022-12-08T07:26:35;163379.91;;;4.54;86.87
41688;BME280;27371;42.686;23.362;2022-12-08T07:29:01;163329.31;;;4.34;87.40
41688;BME280;27371;42.686;23.362;2022-12-08T07:31:27;163326.66;;;4.33;88.02
41688;BME280;27371;42.686;23.362;2022-12-08T07:33:54;163325.31;;;4.33;89.29
41688;BME280;27371;42.686;23.362;2022-12-08T07:36:20;163329.31;;;4.34;89.70
41688;BME280;27371;42.686;23.362;2022-12-08T07:38:45;163335.97;;;4.37;89.94
41688;BME280;27371;42.686;23.362;2022-12-08T07:41:15;163343.94;;;4.40;89.90
41688;BME280;27371;42.686;23.362;2022-12-08T07:43:42;163337.28;;;4.37;89.47
41688;BME280;27371;42.686;23.362;2022-12-08T07:46:10;163347.97;;;4.41;90.47
41688;BME280;27371;42.686;23.362;2022-12-08T07:48:36;163342.63;;;4.39;90.20
41688;BME280;27371;42.686;23.362;2022-12-08T07:51:03;163367.91;;;4.49;90.14
41688;BME280;27371;42.686;23.362;2022-12-08T07:53:28;163374.56;;;4.52;90.09
41688;BME280;27371;42.686;23.362;2022-12-08T07:55:54;163402.53;;;4.62;90.05
41688;BME280;27371;42.686;23.362;2022-12-08T07:58:20;163422.50;;;4.70;89.99
41688;BME280;27371;42.686;23.362;2022-12-08T08:00:46;163435.81;;;4.75;89.64
41688;BME280;27371;42.686;23.362;2022-12-08T08:03:11;163445.13;;;4.79;89.56
41688;BME280;27371;42.686;23.362;2022-12-08T08:05:36;163465.09;;;4.86;89.39
41688;BME280;27371;42.686;23.362;2022-12-08T08:08:02;163455.81;;;4.83;89.37
41688;BME280;27371;42.686;23.362;2022-12-08T08:10:28;163486.41;;;4.95;89.18
41688;BME280;27371;42.686;23.362;2022-12-08T08:12:57;163511.69;;;5.04;89.11
41688;BME280;27371;42.686;23.362;2022-12-08T08:15:23;163527.72;;;5.10;88.66
41688;BME280;27371;42.686;23.362;2022-12-08T08:17:49;163549.03;;;5.19;87.70
41688;BME280;27371;42.686;23.362;2022-12-08T08:20:16;163510.38;;;5.04;85.83
41688;BME280;27371;42.686;23.362;2022-12-08T08:22:42;163495.72;;;4.98;86.54
41688;BME280;27371;42.686;23.362;2022-12-08T08:25:09;163514.38;;;5.05;86.63
41688;BME280;27371;42.686;23.362;2022-12-08T08:27:34;163535.69;;;5.13;87.29
41688;BME280;27371;42.686;23.362;2022-12-08T08:30:00;163542.34;;;5.16;87.08
41688;BME280;27371;42.686;23.362;2022-12-08T08:32:25;163562.34;;;5.24;87.47
41688;BME280;27371;42.686;23.362;2022-12-08T08:34:51;163594.28;;;5.36;87.76
41688;BME280;27371;42.686;23.362;2022-12-08T08:37:16;163623.59;;;5.47;87.30
41688;BME280;27371;42.686;23.362;2022-12-08T08:39:42;163643.56;;;5.55;87.63
41688;BME280;27371;42.686;23.362;2022-12-08T08:42:08;163636.91;;;5.52;86.94
41688;BME280;27371;42.686;23.362;2022-12-08T08:44:33;163672.88;;;5.66;86.90
41688;BME280;27371;42.686;23.362;2022-12-08T08:46:59;163698.16;;;5.76;86.51
41688;BME280;27371;42.686;23.362;2022-12-08T08:49:24;163736.84;;;5.91;86.29
41688;BME280;27371;42.686;23.362;2022-12-08T08:51:50;163752.88;;;5.97;85.93
41688;BME280;27371;42.686;23.362;2022-12-08T08:54:15;163752.88;;;5.97;85.26
41688;BME280;27371;42.686;23.362;2022-12-08T08:56:41;163794.19;;;6.13;84.73
41688;BME280;27371;42.686;23.362;2022-12-08T08:59:08;163832.81;;;6.28;84.36
41688;BME280;27371;42.686;23.362;2022-12-08T09:01:34;163864.81;;;6.40;84.17
41688;BME280;27371;42.686;23.362;2022-12-08T09:03:59;163914.09;;;6.59;83.66
41688;BME280;27371;42.686;23.362;2022-12-08T09:06:25;163975.44;;;6.82;83.27
41688;BME280;27371;42.686;23.362;2022-12-08T09:08:52;163991.44;;;6.88;81.87
41688;BME280;27371;42.686;23.362;2022-12-08T09:11:18;164051.47;;;7.11;81.23
41688;BME280;27371;42.686;23.362;2022-12-08T09:13:46;164107.44;;;7.33;77.42
41688;BME280;27371;42.686;23.362;2022-12-08T09:16:12;164126.13;;;7.40;77.90
41688;BME280;27371;42.686;23.362;2022-12-08T09:18:38;164126.13;;;7.40;77.49
41688;BME280;27371;42.686;23.362;2022-12-08T09:21:08;164123.47;;;7.39;77.60
41688;BME280;27371;42.686;23.362;2022-12-08T09:23:34;164142.13;;;7.46;77.44
41688;BME280;27371;42.686;23.362;2022-12-08T09:26:01;164131.47;;;7.42;77.58
41688;BME280;27371;42.686;23.362;2022-12-08T09:28:27;164112.78;;;7.35;77.45
41688;BME280;27371;42.686;23.362;2022-12-08T09:30:52;164099.44;;;7.30;79.18
41688;BME280;27371;42.686;23.362;2022-12-08T09:33:19;164102.16;;;7.31;78.96
41688;BME280;27371;42.686;23.362;2022-12-08T09:35:44;164059.47;;;7.14;78.40
41688;BME280;27371;42.686;23.362;2022-12-08T09:38:10;164059.47;;;7.14;78.96
41688;BME280;27371;42.686;23.362;2022-12-08T09:40:51;164056.78;;;7.13;78.79
41688;BME280;27371;42.686;23.362;2022-12-08T09:46:03;164066.13;;;7.17;79.42
41688;BME280;27371;42.686;23.362;2022-12-08T09:48:40;164091.44;;;7.27;79.47
41688;BME280;27371;42.686;23.362;2022-12-08T09:51:08;164098.13;;;7.29;79.51
41688;BME280;27371;42.686;23.362;2022-12-08T09:53:38;164107.44;;;7.33;79.49
41688;BME280;27371;42.686;23.362;2022-12-08T09:56:20;164118.13;;;7.37;79.64
41688;BME280;27371;42.686;23.362;2022-12-08T10:01:14;164120.78;;;7.38;79.26
41688;BME280;27371;42.686;23.362;2022-12-08T10:03:40;164119.47;;;7.38;79.27
41688;BME280;27371;42.686;23.362;2022-12-08T10:06:37;164082.13;;;7.23;77.77
41688;BME280;27371;42.686;23.362;2022-12-08T10:11:59;163935.44;;;6.67;79.80
41688;BME280;27371;42.686;23.362;2022-12-08T10:17:36;163955.44;;;6.75;81.65
41688;BME280;27371;42.686;23.362;2022-12-08T10:20:15;163983.44;;;6.85;81.27
41688;BME280;27371;42.686;23.362;2022-12-08T10:22:41;164040.78;;;7.07;81.19
41688;BME280;27371;42.686;23.362;2022-12-08T10:25:18;164035.44;;;7.05;81.53
41688;BME280;27371;42.686;23.362;2022-12-08T10:27:51;164088.81;;;7.26;80.72
41688;BME280;27371;42.686;23.362;2022-12-08T10:30:18;164100.75;;;7.30;80.19
41688;BME280;27371;42.686;23.362;2022-12-08T10:32:47;164148.81;;;7.49;79.38
41688;BME280;27371;42.686;23.362;2022-12-08T10:35:15;164150.13;;;7.49;78.92
41688;BME280;27371;42.686;23.362;2022-12-08T10:37:56;164192.81;;;7.66;78.64
41688;BME280;27371;42.686;23.362;2022-12-08T10:40:23;164211.50;;;7.73;77.94
41688;BME280;27371;42.686;23.362;2022-12-08T10:42:54;164235.50;;;7.82;77.70
41688;BME280;27371;42.686;23.362;2022-12-08T10:45:38;164268.88;;;7.95;77.23
41688;BME280;27371;42.686;23.362;2022-12-08T10:48:16;164288.91;;;8.02;77.00
41688;BME280;27371;42.686;23.362;2022-12-08T10:50:57;164318.25;;;8.14;76.39
41688;BME280;27371;42.686;23.362;2022-12-08T10:58:45;164374.25;;;8.35;74.96
41688;BME280;27371;42.686;23.362;2022-12-08T11:03:51;164352.94;;;8.27;74.23
41688;BME280;27371;42.686;23.362;2022-12-08T11:06:21;164314.22;;;8.12;74.60
41688;BME280;27371;42.686;23.362;2022-12-08T11:08:51;164307.53;;;8.10;75.53
41688;BME280;27371;42.686;23.362;2022-12-08T11:11:18;164306.22;;;8.09;76.29
41688;BME280;27371;42.686;23.362;2022-12-08T11:13:46;164288.91;;;8.02;76.89
41688;BME280;27371;42.686;23.362;2022-12-08T11:16:13;164271.53;;;7.96;78.09
41688;BME280;27371;42.686;23.362;2022-12-08T11:19:02;164310.25;;;8.11;77.22
41688;BME280;27371;42.686;23.362;2022-12-08T11:21:35;164338.22;;;8.21;76.36
41688;BME280;27371;42.686;23.362;2022-12-08T11:24:26;164375.63;;;8.36;76.05
41688;BME280;27371;42.686;23.362;2022-12-08T11:27:01;164391.69;;;8.42;75.56
41688;BME280;27371;42.686;23.362;2022-12-08T11:29:30;164415.69;;;8.51;74.96
41688;BME280;27371;42.686;23.362;2022-12-08T11:31:59;164431.69;;;8.57;75.09
41688;BME280;27371;42.686;23.362;2022-12-08T11:34:37;164449.06;;;8.64;74.65
41688;BME280;27371;42.686;23.362;2022-12-08T11:37:09;164459.72;;;8.68;74.70
41688;BME280;27371;42.686;23.362;2022-12-08T11:39:43;164477.09;;;8.75;74.58
41688;BME280;27371;42.686;23.362;2022-12-08T11:42:14;164503.75;;;8.85;74.23
41688;BME280;27371;42.686;23.362;2022-12-08T11:44:55;164539.88;;;8.99;74.06
41688;BME280;27371;42.686;23.362;2022-12-08T11:50:36;164613.28;;;9.27;73.11
41688;BME280;27371;42.686;23.362;2022-12-08T11:53:04;164578.56;;;9.13;71.92
41688;BME280;27371;42.686;23.362;2022-12-08T11:55:46;164563.88;;;9.08;72.83
41688;BME280;27371;42.686;23.362;2022-12-08T11:58:17;164573.22;;;9.11;73.45
41688;BME280;27371;42.686;23.362;2022-12-08T12:00:44;164599.91;;;9.22;73.70
41688;BME280;27371;42.686;23.362;2022-12-08T12:09:16;164637.31;;;9.36;73.61
41688;BME280;27371;42.686;23.362;2022-12-08T12:12:25;164642.66;;;9.38;73.41
41688;BME280;27371;42.686;23.362;2022-12-08T12:15:29;164672.03;;;9.49;73.01
41688;BME280;27371;42.686;23.362;2022-12-08T12:21:01;164722.78;;;9.69;71.96
41688;BME280;27371;42.686;23.362;2022-12-08T12:26:02;164748.13;;;9.78;71.90
41688;BME280;27371;42.686;23.362;2022-12-08T12:28:44;164758.84;;;9.82;71.68
41688;BME280;27371;42.686;23.362;2022-12-08T12:31:19;164814.97;;;10.04;71.54
41688;BME280;27371;42.686;23.362;2022-12-08T12:33:47;164840.31;;;10.14;71.11
41688;BME280;27371;42.686;23.362;2022-12-08T12:36:14;164843.00;;;10.15;70.61
41688;BME280;27371;42.686;23.362;2022-12-08T12:38:50;164871.06;;;10.25;70.56
41688;BME280;27371;42.686;23.362;2022-12-08T12:51:56;164689.38;;;9.56;72.03
41688;BME280;27371;42.686;23.362;2022-12-08T12:54:23;164637.31;;;9.36;73.04
41688;BME280;27371;42.686;23.362;2022-12-08T12:59:46;164670.72;;;9.49;74.57
41688;BME280;27371;42.686;23.362;2022-12-08T13:02:32;164702.72;;;9.61;73.29
41688;BME280;27371;42.686;23.362;2022-12-08T13:05:46;164744.16;;;9.77;72.47
41688;BME280;27371;42.686;23.362;2022-12-08T13:07:56;164785.56;;;9.93;71.92
41688;BME280;27371;42.686;23.362;2022-12-08T13:10:30;164808.28;;;10.01;71.43
41688;BME280;27371;42.686;23.362;2022-12-08T13:13:15;164825.63;;;10.08;71.29
41688;BME280;27371;42.686;23.362;2022-12-08T13:18:40;164843.00;;;10.15;70.21
41688;BME280;27371;42.686;23.362;2022-12-08T13:21:11;164852.34;;;10.18;70.23
41688;BME280;27371;42.686;23.362;2022-12-08T13:23:49;164868.38;;;10.24;70.07
41688;BME280;27371;42.686;23.362;2022-12-08T13:26:17;164863.00;;;10.22;70.15
41688;BME280;27371;42.686;23.362;2022-12-08T13:31:47;164873.72;;;10.26;69.91
41688;BME280;27371;42.686;23.362;2022-12-08T13:39:38;164772.22;;;9.88;69.77
41688;BME280;27371;42.686;23.362;2022-12-08T13:47:41;164741.50;;;9.76;71.97
41688;BME280;27371;42.686;23.362;2022-12-08T13:50:18;164726.75;;;9.70;71.78
41688;BME280;27371;42.686;23.362;2022-12-08T13:52:58;164705.44;;;9.62;72.70
41688;BME280;27371;42.686;23.362;2022-12-08T13:55:47;164716.09;;;9.66;72.35
41688;BME280;27371;42.686;23.362;2022-12-08T13:58:32;164734.81;;;9.73;72.60
41688;BME280;27371;42.686;23.362;2022-12-08T14:03:48;164752.16;;;9.80;72.17
41688;BME280;27371;42.686;23.362;2022-12-08T14:06:35;164749.50;;;9.79;72.20
41688;BME280;27371;42.686;23.362;2022-12-08T14:09:04;164734.81;;;9.73;72.28
41688;BME280;27371;42.686;23.362;2022-12-08T14:11:34;164722.78;;;9.69;72.86
41688;BME280;27371;42.686;23.362;2022-12-08T14:14:07;164734.81;;;9.73;73.13
41688;BME280;27371;42.686;23.362;2022-12-08T14:16:40;164748.13;;;9.78;73.16
41688;BME280;27371;42.686;23.362;2022-12-08T14:19:24;164742.81;;;9.76;73.35
41688;BME280;27371;42.686;23.362;2022-12-08T14:22:02;164728.13;;;9.71;73.28
41688;BME280;27371;42.686;23.362;2022-12-08T14:24:30;164718.75;;;9.67;73.50
41688;BME280;27371;42.686;23.362;2022-12-08T14:26:59;164676.00;;;9.51;72.17
41688;BME280;27371;42.686;23.362;2022-12-08T14:32:17;164461.09;;;8.68;75.06
41688;BME280;27371;42.686;23.362;2022-12-08T14:34:44;164418.38;;;8.52;76.76
41688;BME280;27371;42.686;23.362;2022-12-08T14:37:11;164399.69;;;8.45;78.13
41688;BME280;27371;42.686;23.362;2022-12-08T14:39:38;164375.63;;;8.36;79.55
41688;BME280;27371;42.686;23.362;2022-12-08T14:42:05;164386.31;;;8.40;80.61
41688;BME280;27371;42.686;23.362;2022-12-08T14:44:33;164407.69;;;8.48;80.70